Terminal Aerodrome Forecast
Issued by NWS Denver/Boulder, CO

Home | Current Version | Previous Version | Text Only | Print | Product List | Glossary On
Versions: 1 2 3 4 5 6 7 8 9 10 11 12 13 14 15 16 17 18 19 20 21 22 23 24 25 26 27 28 29 30 31 32 33 34 35 36 37 38 39 40 41 42 43 44 45 46 47 48 49 50
000
FTUS45 KBOU 230536
TAFDEN
TAF
KDEN 230536Z 2306/2412 33012KT P6SM FEW100 SCT150 BKN220
     FM230800 23008KT P6SM FEW090 SCT150 BKN220
     FM231000 35011KT P6SM FEW080 SCT140 BKN220
     FM231400 04012G17KT P6SM SCT070 BKN120
      TEMPO 2315/2319 BKN060 BKN100
     FM232000 08008KT P6SM SCT070 BKN120
     FM232300 02012KT P6SM SCT090 BKN140
     FM240200 34009KT P6SM SCT140 SCT220
     FM240600 27007KT P6SM SCT220=

USA.gov is the U.S. government's official web portal to all federal, state and local government web resources and services.